createdAt,value
2022-07-30T00:00:27.361Z,39.16
2022-07-30T00:02:55.269Z,39.67
2022-07-30T00:05:23.258Z,39.56
2022-07-30T00:07:51.281Z,39.48
2022-07-30T00:10:22.991Z,39.62
2022-07-30T00:12:51.156Z,39.92
2022-07-30T00:15:19.176Z,39.93
2022-07-30T00:17:49.157Z,40.22
2022-07-30T00:20:18.580Z,39.81
2022-07-30T00:22:46.923Z,40.04
2022-07-30T00:25:15.220Z,40.02
2022-07-30T00:27:45.386Z,39.99
2022-07-30T00:30:14.540Z,40.36
2022-07-30T00:32:44.443Z,40.66
2022-07-30T00:35:12.484Z,40.48
2022-07-30T00:37:40.786Z,40.33
2022-07-30T00:40:10.354Z,40.13
2022-07-30T00:42:42.616Z,40.53
2022-07-30T00:45:13.580Z,40.37
2022-07-30T00:47:42.304Z,40.76
2022-07-30T00:50:12.306Z,41.00
2022-07-30T00:52:42.234Z,41.58
2022-07-30T00:55:12.700Z,41.43
2022-07-30T00:57:41.499Z,41.70
2022-07-30T01:00:14.622Z,40.99
2022-07-30T01:02:42.978Z,41.14
2022-07-30T01:05:11.593Z,41.61
2022-07-30T01:07:39.637Z,41.67
2022-07-30T01:10:11.180Z,42.34
2022-07-30T01:12:39.519Z,42.27
2022-07-30T01:15:09.423Z,41.88
2022-07-30T01:17:39.498Z,42.16
2022-07-30T01:20:11.139Z,42.30
2022-07-30T01:22:52.371Z,42.55
2022-07-30T01:25:28.987Z,42.49
2022-07-30T01:28:03.545Z,42.27
2022-07-30T01:30:35.284Z,42.26
2022-07-30T01:33:05.660Z,42.93
2022-07-30T01:35:35.732Z,42.99
2022-07-30T01:38:06.388Z,42.46
2022-07-30T01:40:36.117Z,42.53
2022-07-30T01:43:08.178Z,42.97
2022-07-30T01:45:44.195Z,43.28
2022-07-30T01:48:15.843Z,42.96
2022-07-30T01:50:46.365Z,43.56
2022-07-30T01:53:17.833Z,43.40
2022-07-30T01:55:46.482Z,42.90
2022-07-30T01:58:19.463Z,43.58
2022-07-30T02:00:50.949Z,43.31
2022-07-30T02:03:19.030Z,43.80
2022-07-30T02:05:53.551Z,43.85
2022-07-30T02:08:28.962Z,43.26
2022-07-30T02:11:02.634Z,43.08
2022-07-30T02:13:34.241Z,43.40
2022-07-30T02:16:13.008Z,43.85
2022-07-30T02:18:49.066Z,43.48
2022-07-30T02:21:21.549Z,43.74
2022-07-30T02:23:53.386Z,43.41
2022-07-30T02:26:26.248Z,43.48
2022-07-30T02:29:00.518Z,43.83
2022-07-30T02:31:30.357Z,44.03
2022-07-30T02:34:02.437Z,44.10
2022-07-30T02:36:32.351Z,44.36
2022-07-30T02:39:02.731Z,44.12
2022-07-30T02:41:32.858Z,44.37
2022-07-30T02:44:03.911Z,44.10
2022-07-30T02:46:33.524Z,44.39
2022-07-30T02:49:22.553Z,44.96
2022-07-30T02:51:52.024Z,45.26
2022-07-30T02:54:21.144Z,44.60
2022-07-30T02:56:51.693Z,44.42
2022-07-30T02:59:24.695Z,44.83
2022-07-30T03:01:53.632Z,45.25
2022-07-30T03:04:22.984Z,44.95
2022-07-30T03:06:52.275Z,45.08
2022-07-30T03:09:21.391Z,45.38
2022-07-30T03:11:52.494Z,45.15
2022-07-30T03:14:21.992Z,45.09
2022-07-30T03:16:57.315Z,45.20
2022-07-30T03:19:30.242Z,45.14
2022-07-30T03:21:59.605Z,46.40
2022-07-30T03:24:29.877Z,45.91
2022-07-30T03:27:01.003Z,45.45
2022-07-30T03:29:31.666Z,45.58
2022-07-30T03:32:01.213Z,45.29
2022-07-30T03:34:29.637Z,45.51
2022-07-30T03:36:58.898Z,45.04
2022-07-30T03:39:27.977Z,45.50
2022-07-30T03:41:56.846Z,45.13
2022-07-30T03:44:26.356Z,45.15
2022-07-30T03:46:57.911Z,46.08
2022-07-30T03:49:27.788Z,46.33
2022-07-30T03:51:57.144Z,45.67
2022-07-30T03:54:26.586Z,46.22
2022-07-30T03:57:15.238Z,45.47
2022-07-30T03:59:51.687Z,45.62
2022-07-30T04:02:22.827Z,45.14
2022-07-30T04:05:14.289Z,44.69
2022-07-30T04:07:45.321Z,45.44
2022-07-30T04:10:16.722Z,45.58
2022-07-30T04:13:00.224Z,46.18
2022-07-30T04:16:40.108Z,47.45
2022-07-30T04:18:21.240Z,46.86
2022-07-30T04:20:52.118Z,47.14
2022-07-30T04:23:20.445Z,46.19
2022-07-30T04:25:49.564Z,45.74
2022-07-30T04:28:18.020Z,46.50
2022-07-30T04:30:47.340Z,46.85
2022-07-30T04:33:15.557Z,45.83
2022-07-30T04:35:58.834Z,45.63
2022-07-30T04:38:32.754Z,45.27
2022-07-30T04:41:01.293Z,45.39
2022-07-30T04:43:34.118Z,45.97
2022-07-30T04:46:02.525Z,46.15
2022-07-30T04:48:30.501Z,45.45
2022-07-30T04:51:17.838Z,46.73
2022-07-30T04:53:48.341Z,45.44
2022-07-30T04:56:19.544Z,45.65
2022-07-30T04:58:49.842Z,45.31
2022-07-30T05:01:24.224Z,45.79
2022-07-30T05:04:07.828Z,45.81
2022-07-30T05:06:39.643Z,45.89
2022-07-30T05:09:08.057Z,46.24
2022-07-30T05:11:36.141Z,47.01
2022-07-30T05:14:04.128Z,46.85
2022-07-30T05:16:34.092Z,48.01
2022-07-30T05:19:07.583Z,46.70
2022-07-30T05:21:38.232Z,46.91
2022-07-30T05:24:07.053Z,45.82
2022-07-30T05:26:41.909Z,46.94
2022-07-30T05:29:17.251Z,46.71
2022-07-30T05:31:52.921Z,46.71
2022-07-30T05:34:22.172Z,48.33
2022-07-30T05:36:51.567Z,46.90
2022-07-30T05:39:19.785Z,46.57
2022-07-30T05:41:53.341Z,46.32
2022-07-30T05:44:26.255Z,46.40
2022-07-30T05:46:54.632Z,46.58
2022-07-30T05:49:22.721Z,46.75
2022-07-30T05:51:55.626Z,46.73
2022-07-30T05:54:24.695Z,45.92
2022-07-30T05:57:31.339Z,46.29
2022-07-30T05:59:59.310Z,46.57
2022-07-30T06:02:44.616Z,45.62
2022-07-30T06:05:32.918Z,45.36
2022-07-30T06:08:04.804Z,44.74
2022-07-30T06:10:33.206Z,45.52
2022-07-30T06:13:01.303Z,46.65
2022-07-30T06:15:29.323Z,45.54
2022-07-30T06:18:01.847Z,45.08
2022-07-30T06:20:47.305Z,46.09
2022-07-30T06:23:23.076Z,45.75
2022-07-30T06:26:26.400Z,45.24
2022-07-30T06:28:54.370Z,45.14
2022-07-30T06:31:30.495Z,45.79
2022-07-30T06:33:58.597Z,46.34
2022-07-30T06:36:30.501Z,45.78
2022-07-30T06:39:14.617Z,46.14
2022-07-30T06:42:28.995Z,45.60
2022-07-30T06:45:22.455Z,45.04
2022-07-30T06:48:09.562Z,44.90
2022-07-30T06:50:37.873Z,44.40
2022-07-30T06:53:07.097Z,45.32
2022-07-30T06:56:00.468Z,45.17
2022-07-30T06:58:36.184Z,44.34
2022-07-30T07:01:26.798Z,44.23
2022-07-30T07:03:56.381Z,45.63
2022-07-30T07:06:24.635Z,46.65
2022-07-30T07:08:52.577Z,44.55
2022-07-30T07:11:28.957Z,45.17
2022-07-30T07:14:04.020Z,45.35
2022-07-30T07:16:35.760Z,44.99
2022-07-30T07:20:01.336Z,44.19
2022-07-30T07:22:15.854Z,44.19
2022-07-30T07:24:45.401Z,45.35
2022-07-30T07:27:19.796Z,44.35
2022-07-30T07:30:05.525Z,44.56
2022-07-30T07:32:37.822Z,46.61
2022-07-30T07:35:07.141Z,46.24
2022-07-30T07:37:38.473Z,46.35
2022-07-30T07:40:09.034Z,45.51
2022-07-30T07:42:43.004Z,46.96
2022-07-30T07:45:12.118Z,45.84
2022-07-30T07:47:53.195Z,46.47
2022-07-30T07:51:00.596Z,46.29
2022-07-30T07:53:31.894Z,46.54
2022-07-30T07:56:00.193Z,45.48
2022-07-30T07:58:31.059Z,46.50
2022-07-30T08:01:02.313Z,47.60
2022-07-30T08:03:59.260Z,45.93
2022-07-30T08:06:53.094Z,46.33
2022-07-30T08:09:50.015Z,44.97
2022-07-30T08:12:44.003Z,45.46
2022-07-30T08:15:32.493Z,45.87
2022-07-30T08:18:11.057Z,45.74
2022-07-30T08:20:57.510Z,45.61
2022-07-30T08:23:30.299Z,43.91
2022-07-30T08:25:58.951Z,44.79
2022-07-30T08:28:27.593Z,46.16
2022-07-30T08:31:06.407Z,44.89
2022-07-30T08:33:34.432Z,46.84
2022-07-30T08:36:04.309Z,44.63
2022-07-30T08:38:37.359Z,44.73
2022-07-30T08:41:05.589Z,44.03
2022-07-30T08:43:34.428Z,47.08
2022-07-30T08:46:03.619Z,46.30
2022-07-30T08:48:51.462Z,44.03
2022-07-30T08:51:22.152Z,43.21
2022-07-30T08:53:57.750Z,44.21
2022-07-30T08:56:26.135Z,43.67
2022-07-30T08:58:54.472Z,45.03
2022-07-30T09:01:23.872Z,43.71
2022-07-30T09:03:53.346Z,45.15
2022-07-30T09:06:21.371Z,43.01
2022-07-30T09:08:49.630Z,43.25
2022-07-30T09:11:18.897Z,43.55
2022-07-30T09:13:47.059Z,42.58
2022-07-30T09:16:23.532Z,46.03
2022-07-30T09:18:54.878Z,43.63
2022-07-30T09:21:26.010Z,44.95
2022-07-30T09:24:05.387Z,44.80
2022-07-30T09:26:58.469Z,44.23
2022-07-30T09:29:44.991Z,44.02
2022-07-30T09:32:49.653Z,43.71
2022-07-30T09:35:42.756Z,44.28
2022-07-30T09:38:11.434Z,44.50
2022-07-30T09:41:29.082Z,43.10
2022-07-30T09:44:09.532Z,41.01
2022-07-30T09:46:47.404Z,40.68
2022-07-30T09:49:22.432Z,43.10
2022-07-30T09:51:55.874Z,41.54
2022-07-30T09:54:26.285Z,41.03
2022-07-30T09:57:23.142Z,42.22
2022-07-30T09:59:57.905Z,41.20
2022-07-30T10:02:32.910Z,40.04
2022-07-30T10:05:20.538Z,39.54
2022-07-30T10:07:52.134Z,39.43
2022-07-30T10:10:25.216Z,37.86
2022-07-30T10:12:58.155Z,38.36
2022-07-30T10:15:30.721Z,39.06
2022-07-30T10:18:02.494Z,39.03
2022-07-30T10:20:53.240Z,36.36
2022-07-30T10:23:53.843Z,36.17
2022-07-30T10:26:41.026Z,37.42
2022-07-30T10:29:39.251Z,39.47
2022-07-30T10:32:11.694Z,39.01
2022-07-30T10:34:42.412Z,38.21
2022-07-30T10:37:13.172Z,37.68
2022-07-30T10:39:53.559Z,39.00
2022-07-30T10:42:42.908Z,38.66
2022-07-30T10:45:19.536Z,39.69
2022-07-30T10:47:49.852Z,37.49
2022-07-30T10:50:22.279Z,39.99
2022-07-30T10:52:52.225Z,39.36
2022-07-30T10:55:37.003Z,37.10
2022-07-30T10:58:09.725Z,37.18
2022-07-30T11:01:00.891Z,35.42
2022-07-30T11:03:40.397Z,35.55
2022-07-30T11:06:29.412Z,34.94
2022-07-30T11:08:58.206Z,36.07
2022-07-30T11:12:01.778Z,35.46
2022-07-30T11:14:58.360Z,31.91
2022-07-30T11:18:03.240Z,32.34
2022-07-30T11:20:33.158Z,31.52
2022-07-30T11:23:14.046Z,33.97
2022-07-30T11:25:51.879Z,31.48
2022-07-30T11:28:41.662Z,33.08
2022-07-30T11:31:55.051Z,30.46
2022-07-30T11:34:30.700Z,31.67
2022-07-30T11:37:22.362Z,31.29
2022-07-30T11:40:11.373Z,30.69
2022-07-30T11:42:41.956Z,29.88
2022-07-30T11:45:30.877Z,31.04
2022-07-30T11:48:01.266Z,29.31
2022-07-30T11:50:32.217Z,29.02
2022-07-30T11:53:02.313Z,31.95
2022-07-30T11:55:33.384Z,28.74
2022-07-30T11:58:02.877Z,29.70
2022-07-30T12:00:39.752Z,29.81
2022-07-30T12:03:15.432Z,29.40
2022-07-30T12:05:44.289Z,29.11
2022-07-30T12:08:35.581Z,29.05
2022-07-30T12:11:02.833Z,28.77
2022-07-30T12:13:45.265Z,29.17
2022-07-30T12:16:17.926Z,27.84
2022-07-30T12:18:46.874Z,30.56
2022-07-30T12:21:16.300Z,28.02
2022-07-30T12:23:54.436Z,27.08
2022-07-30T12:26:23.086Z,26.94
2022-07-30T12:28:52.666Z,27.74
2022-07-30T12:31:22.257Z,29.09
2022-07-30T12:33:50.223Z,28.66
2022-07-30T12:36:30.777Z,28.44
2022-07-30T12:38:59.187Z,29.96
2022-07-30T12:41:43.637Z,33.31
2022-07-30T12:44:11.799Z,30.77
2022-07-30T12:46:42.198Z,29.58
2022-07-30T12:49:22.664Z,29.44
2022-07-30T12:51:59.942Z,30.14
2022-07-30T12:54:29.441Z,30.05
2022-07-30T12:56:59.911Z,29.38
2022-07-30T12:59:28.793Z,29.57
2022-07-30T13:02:00.477Z,28.57
2022-07-30T13:04:29.009Z,28.93
2022-07-30T13:07:08.434Z,29.13
2022-07-30T13:09:37.094Z,30.39
2022-07-30T13:12:06.238Z,29.81
2022-07-30T13:14:34.297Z,30.48
2022-07-30T13:17:04.296Z,31.82
2022-07-30T13:19:32.614Z,31.62
2022-07-30T13:22:00.587Z,31.94
2022-07-30T13:24:28.508Z,31.26
2022-07-30T13:26:56.505Z,30.57
2022-07-30T13:29:24.479Z,32.62
2022-07-30T13:31:52.718Z,31.74
2022-07-30T13:34:21.999Z,30.86
2022-07-30T13:36:49.956Z,30.78
2022-07-30T13:39:17.897Z,29.75
2022-07-30T13:41:45.892Z,30.32
2022-07-30T13:44:13.793Z,31.41
2022-07-30T13:46:41.818Z,31.68
2022-07-30T13:49:10.872Z,30.59
2022-07-30T13:51:40.464Z,29.85
2022-07-30T13:54:08.466Z,29.43
2022-07-30T13:56:40.888Z,30.12
2022-07-30T13:59:09.292Z,30.34
2022-07-30T14:01:38.145Z,32.43
2022-07-30T14:04:06.867Z,32.65
2022-07-30T14:06:34.845Z,31.39
2022-07-30T14:09:04.683Z,30.63
2022-07-30T14:11:33.084Z,31.34
2022-07-30T14:14:00.988Z,31.29
2022-07-30T14:16:44.856Z,30.39
2022-07-30T14:19:23.582Z,30.36
2022-07-30T14:21:52.951Z,30.50
2022-07-30T14:24:22.940Z,30.80
2022-07-30T14:26:58.776Z,30.98
2022-07-30T14:29:27.353Z,31.11
2022-07-30T14:31:55.921Z,31.44
2022-07-30T14:34:23.956Z,32.34
2022-07-30T14:36:51.927Z,31.48
2022-07-30T14:39:20.633Z,31.52
2022-07-30T14:41:53.572Z,30.46
2022-07-30T14:44:24.348Z,31.22
2022-07-30T14:46:53.025Z,30.09
2022-07-30T14:49:21.743Z,32.14
2022-07-30T14:51:51.096Z,30.80
2022-07-30T14:54:19.493Z,30.69
2022-07-30T14:56:48.908Z,30.92
2022-07-30T14:59:17.007Z,30.60
2022-07-30T15:01:45.147Z,30.78
2022-07-30T15:04:13.146Z,31.57
2022-07-30T15:06:41.835Z,31.50
2022-07-30T15:09:10.674Z,31.97
2022-07-30T15:12:07.635Z,32.50
2022-07-30T15:14:29.344Z,32.97
2022-07-30T15:17:03.697Z,31.08
2022-07-30T15:19:32.750Z,31.42
2022-07-30T15:22:02.392Z,31.97
2022-07-30T15:24:30.667Z,31.02
2022-07-30T15:26:58.630Z,30.39
2022-07-30T15:29:29.304Z,30.63
2022-07-30T15:32:00.760Z,30.71
2022-07-30T15:34:33.965Z,30.48
2022-07-30T15:37:02.599Z,30.52
2022-07-30T15:39:32.895Z,31.05
2022-07-30T15:42:01.979Z,31.65
2022-07-30T15:44:30.286Z,30.60
2022-07-30T15:46:59.886Z,30.94
2022-07-30T15:49:28.313Z,30.51
2022-07-30T15:51:57.308Z,30.74
2022-07-30T15:54:25.662Z,29.78
2022-07-30T15:57:00.739Z,30.37
2022-07-30T15:59:30.127Z,30.92
2022-07-30T16:01:59.619Z,30.18
2022-07-30T16:04:31.283Z,29.77
2022-07-30T16:07:00.718Z,29.93
2022-07-30T16:09:29.205Z,30.63
2022-07-30T16:11:57.287Z,29.91
2022-07-30T16:14:26.728Z,30.81
2022-07-30T16:16:54.690Z,30.33
2022-07-30T16:19:24.135Z,32.56
2022-07-30T16:21:52.219Z,30.15
2022-07-30T16:24:20.324Z,30.01
2022-07-30T16:26:48.281Z,31.15
2022-07-30T16:29:16.240Z,30.80
2022-07-30T16:31:44.271Z,31.02
2022-07-30T16:34:12.302Z,30.29
2022-07-30T16:36:41.668Z,30.39
2022-07-30T16:39:09.638Z,31.04
2022-07-30T16:41:37.761Z,31.19
2022-07-30T16:44:06.096Z,30.89
2022-07-30T16:46:34.400Z,30.60
2022-07-30T16:49:02.391Z,31.23
2022-07-30T16:51:30.651Z,31.25
2022-07-30T16:54:00.094Z,31.16
2022-07-30T16:56:28.087Z,31.91
2022-07-30T16:58:56.138Z,31.79
2022-07-30T17:01:24.198Z,33.64
2022-07-30T17:03:52.371Z,31.20
2022-07-30T17:06:20.295Z,31.03
2022-07-30T17:08:48.679Z,30.88
2022-07-30T17:11:45.973Z,33.76
2022-07-30T17:14:06.139Z,32.06
2022-07-30T17:16:34.085Z,31.07
2022-07-30T17:19:09.330Z,32.80
2022-07-30T17:21:39.084Z,33.17
2022-07-30T17:24:11.338Z,30.81
2022-07-30T17:26:43.309Z,31.74
2022-07-30T17:29:14.382Z,31.61
2022-07-30T17:31:44.216Z,32.73
2022-07-30T17:34:14.323Z,31.13
2022-07-30T17:36:51.785Z,34.29
2022-07-30T17:40:28.228Z,32.49
2022-07-30T17:42:11.180Z,31.59
2022-07-30T17:44:40.265Z,31.25
2022-07-30T17:47:14.383Z,31.64
2022-07-30T17:49:42.730Z,31.17
2022-07-30T17:52:10.662Z,31.71
2022-07-30T17:54:38.749Z,32.68
2022-07-30T17:57:07.133Z,31.70
2022-07-30T17:59:36.528Z,31.51
2022-07-30T18:02:05.394Z,35.92
2022-07-30T18:04:34.771Z,32.91
2022-07-30T18:07:02.763Z,32.94
2022-07-30T18:09:39.165Z,31.61
2022-07-30T18:12:09.067Z,33.22
2022-07-30T18:14:38.669Z,32.80
2022-07-30T18:17:10.031Z,35.70
2022-07-30T18:19:40.835Z,32.30
2022-07-30T18:22:09.064Z,32.82
2022-07-30T18:24:40.478Z,33.52
2022-07-30T18:27:12.661Z,34.81
2022-07-30T18:29:42.730Z,32.30
2022-07-30T18:32:10.781Z,33.96
2022-07-30T18:34:38.972Z,32.30
2022-07-30T18:37:06.973Z,33.43
2022-07-30T18:39:34.888Z,33.58
2022-07-30T18:42:03.585Z,34.41
2022-07-30T18:44:32.136Z,33.76
2022-07-30T18:47:01.581Z,33.25
2022-07-30T18:49:37.987Z,36.40
2022-07-30T18:52:08.147Z,33.85
2022-07-30T18:54:36.804Z,35.37
2022-07-30T18:57:05.266Z,36.13
2022-07-30T18:59:33.427Z,35.20
2022-07-30T19:02:04.640Z,37.74
2022-07-30T19:04:33.068Z,35.42
2022-07-30T19:07:01.057Z,35.99
2022-07-30T19:09:29.073Z,36.85
2022-07-30T19:11:57.019Z,36.53
2022-07-30T19:14:25.061Z,36.79
2022-07-30T19:16:53.465Z,36.35
2022-07-30T19:19:28.690Z,34.00
2022-07-30T19:21:56.924Z,33.71
2022-07-30T19:24:27.837Z,35.87
2022-07-30T19:26:56.256Z,37.08
2022-07-30T19:29:24.339Z,36.79
2022-07-30T19:31:52.261Z,36.71
2022-07-30T19:34:20.321Z,37.64
2022-07-30T19:36:49.955Z,38.55
2022-07-30T19:39:21.501Z,39.63
2022-07-30T19:42:02.035Z,39.26
2022-07-30T19:44:30.531Z,39.97
2022-07-30T19:46:59.996Z,40.16
2022-07-30T19:49:29.689Z,40.57
2022-07-30T19:52:10.647Z,40.43
2022-07-30T19:54:47.331Z,40.72
2022-07-30T19:57:15.362Z,40.93
2022-07-30T19:59:59.633Z,41.67
2022-07-30T20:02:28.487Z,41.51
2022-07-30T20:04:56.870Z,41.67
2022-07-30T20:07:27.528Z,42.50
2022-07-30T20:09:55.823Z,42.87
2022-07-30T20:12:42.695Z,41.70
2022-07-30T20:15:17.356Z,42.00
2022-07-30T20:17:46.504Z,42.43
2022-07-30T20:20:14.766Z,42.66
2022-07-30T20:22:44.309Z,42.79
2022-07-30T20:25:13.561Z,42.99
2022-07-30T20:27:41.922Z,42.70
2022-07-30T20:30:12.698Z,42.85
2022-07-30T20:32:44.789Z,43.41
2022-07-30T20:35:14.924Z,43.53
2022-07-30T20:37:55.555Z,42.84
2022-07-30T20:40:26.602Z,43.20
2022-07-30T20:42:55.309Z,44.47
2022-07-30T20:45:24.750Z,43.48
2022-07-30T20:47:56.404Z,44.88
2022-07-30T20:50:30.856Z,43.76
2022-07-30T20:53:00.949Z,45.29
2022-07-30T20:55:29.254Z,44.22
2022-07-30T20:58:06.957Z,45.82
2022-07-30T21:00:41.818Z,46.28
2022-07-30T21:03:13.634Z,45.27
2022-07-30T21:05:43.101Z,45.11
2022-07-30T21:08:12.839Z,46.11
2022-07-30T21:10:44.662Z,44.95
2022-07-30T21:13:12.790Z,45.76
2022-07-30T21:15:45.369Z,47.00
2022-07-30T21:18:14.233Z,46.09
2022-07-30T21:20:42.185Z,45.69
2022-07-30T21:23:22.176Z,45.93
2022-07-30T21:26:01.480Z,46.51
2022-07-30T21:28:35.236Z,46.92
2022-07-30T21:31:06.824Z,46.43
2022-07-30T21:33:36.360Z,46.75
2022-07-30T21:36:05.357Z,47.20
2022-07-30T21:38:41.807Z,46.96
2022-07-30T21:41:14.218Z,47.55
2022-07-30T21:43:43.569Z,47.23
2022-07-30T21:46:12.128Z,48.37
2022-07-30T21:48:40.943Z,47.67
2022-07-30T21:51:09.544Z,47.55
2022-07-30T21:53:45.095Z,47.30
2022-07-30T21:56:16.579Z,49.73
2022-07-30T21:58:45.297Z,47.92
2022-07-30T22:01:16.839Z,48.35
2022-07-30T22:04:07.762Z,48.06
2022-07-30T22:06:40.060Z,49.91
2022-07-30T22:09:18.995Z,50.10
2022-07-30T22:12:01.279Z,49.52
2022-07-30T22:14:30.174Z,50.80
2022-07-30T22:16:59.663Z,49.28
2022-07-30T22:19:27.801Z,50.49
2022-07-30T22:21:55.950Z,49.54
2022-07-30T22:24:28.673Z,49.59
2022-07-30T22:27:00.079Z,50.70
2022-07-30T22:29:34.098Z,50.99
2022-07-30T22:32:04.043Z,51.77
2022-07-30T22:34:32.729Z,51.25
2022-07-30T22:37:00.818Z,51.66
2022-07-30T22:39:32.133Z,52.29
2022-07-30T22:42:17.024Z,52.50
2022-07-30T22:44:47.518Z,52.08
2022-07-30T22:47:18.974Z,52.24
2022-07-30T22:52:52.477Z,53.57
2022-07-30T22:55:28.536Z,53.86
2022-07-30T22:58:00.276Z,53.63
2022-07-30T23:00:29.832Z,53.91
2022-07-30T23:02:58.446Z,53.59
2022-07-30T23:05:26.811Z,53.24
2022-07-30T23:07:55.339Z,53.43
2022-07-30T23:10:25.604Z,53.89
2022-07-30T23:12:30.541Z,52.67
2022-07-30T23:12:56.801Z,53.71
2022-07-30T23:15:25.154Z,52.86
2022-07-30T23:17:54.522Z,53.08
2022-07-30T23:20:24.718Z,53.28
2022-07-30T23:22:52.997Z,52.79
2022-07-30T23:25:21.483Z,52.85
2022-07-30T23:27:52.569Z,53.20
2022-07-30T23:30:20.737Z,53.32
2022-07-30T23:32:50.622Z,53.90
2022-07-30T23:35:21.971Z,53.97
2022-07-30T23:37:50.312Z,55.21
2022-07-30T23:40:19.680Z,55.28
2022-07-30T23:42:47.815Z,55.02
2022-07-30T23:45:18.857Z,55.16
2022-07-30T23:47:55.954Z,56.41
2022-07-30T23:50:32.650Z,57.87
2022-07-30T23:53:01.076Z,57.11
2022-07-30T23:55:33.023Z,56.99
2022-07-30T23:58:01.299Z,56.38
